createdAt,value
2022-10-17T00:02:00.156Z,90.70
2022-10-17T00:04:39.531Z,90.70
2022-10-17T00:07:11.162Z,90.70
2022-10-17T00:09:39.363Z,90.70
2022-10-17T00:12:12.870Z,90.60
2022-10-17T00:14:42.034Z,90.70
2022-10-17T00:17:12.383Z,90.70
2022-10-17T00:19:45.895Z,90.70
2022-10-17T00:22:14.955Z,90.70
2022-10-17T00:24:43.232Z,90.70
2022-10-17T00:27:15.180Z,90.70
2022-10-17T00:29:45.251Z,90.70
2022-10-17T00:35:02.731Z,90.70
2022-10-17T00:37:34.171Z,90.70
2022-10-17T00:40:09.966Z,90.70
2022-10-17T00:42:39.035Z,90.70
2022-10-17T00:45:21.991Z,90.70
2022-10-17T00:48:10.343Z,90.70
2022-10-17T00:50:47.268Z,90.80
2022-10-17T00:53:24.340Z,90.80
2022-10-17T00:56:09.240Z,90.80
2022-10-17T00:58:37.579Z,90.80
2022-10-17T01:01:06.364Z,90.80
2022-10-17T01:03:36.396Z,90.80
2022-10-17T01:06:11.338Z,91.20
2022-10-17T01:08:40.842Z,90.90
2022-10-17T01:11:22.422Z,90.90
2022-10-17T01:13:55.414Z,90.90
2022-10-17T01:19:42.492Z,90.90
2022-10-17T01:22:33.703Z,90.90
2022-10-17T01:25:23.550Z,91.00
2022-10-17T01:28:02.296Z,91.00
2022-10-17T01:31:02.591Z,91.00
2022-10-17T01:33:51.025Z,91.10
2022-10-17T01:36:32.595Z,91.50
2022-10-17T01:39:08.617Z,91.10
2022-10-17T01:41:46.585Z,91.20
2022-10-17T01:44:21.280Z,91.20
2022-10-17T01:46:58.392Z,91.10
2022-10-17T01:49:31.436Z,91.30
2022-10-17T01:52:05.718Z,91.20
2022-10-17T01:54:40.139Z,91.20
2022-10-17T01:57:13.426Z,91.10
2022-10-17T01:59:43.609Z,91.10
2022-10-17T02:02:19.541Z,91.10
2022-10-17T02:04:50.465Z,91.00
2022-10-17T02:07:21.812Z,91.00
2022-10-17T02:09:50.391Z,90.90
2022-10-17T02:12:41.396Z,90.90
2022-10-17T02:15:30.123Z,90.90
2022-10-17T02:18:17.819Z,90.90
2022-10-17T02:20:56.073Z,90.90
2022-10-17T02:23:33.697Z,90.90
2022-10-17T02:26:08.240Z,91.00
2022-10-17T02:28:44.609Z,91.20
2022-10-17T02:31:19.470Z,91.20
2022-10-17T02:33:55.200Z,91.20
2022-10-17T02:36:26.827Z,91.20
2022-10-17T02:39:00.040Z,91.20
2022-10-17T02:44:06.233Z,91.20
2022-10-17T02:46:37.729Z,91.20
2022-10-17T02:49:14.750Z,91.20
2022-10-17T02:51:47.944Z,91.30
2022-10-17T02:54:23.105Z,91.30
2022-10-17T02:56:56.373Z,91.30
2022-10-17T02:59:28.386Z,91.30
2022-10-17T03:01:57.812Z,91.30
2022-10-17T03:04:32.169Z,91.40
2022-10-17T03:07:02.747Z,91.40
2022-10-17T03:09:31.135Z,91.40
2022-10-17T03:12:01.110Z,91.40
2022-10-17T03:14:31.698Z,91.40
2022-10-17T03:17:02.110Z,91.30
2022-10-17T03:19:32.682Z,91.30
2022-10-17T03:22:00.741Z,91.30
2022-10-17T03:24:30.486Z,91.20
2022-10-17T03:27:00.101Z,91.20
2022-10-17T03:29:30.637Z,91.10
2022-10-17T03:31:59.775Z,91.20
2022-10-17T03:34:28.394Z,91.20
2022-10-17T03:36:59.674Z,91.10
2022-10-17T03:39:31.381Z,91.10
2022-10-17T03:41:59.531Z,91.10
2022-10-17T03:44:34.366Z,91.10
2022-10-17T03:47:13.358Z,91.10
2022-10-17T03:49:43.756Z,91.10
2022-10-17T03:52:25.752Z,91.10
2022-10-17T03:54:53.917Z,91.10
2022-10-17T03:57:22.053Z,91.10
2022-10-17T03:59:52.968Z,91.00
2022-10-17T04:02:21.688Z,91.10
2022-10-17T04:04:53.399Z,91.20
2022-10-17T04:09:52.929Z,91.30
2022-10-17T04:12:21.604Z,91.20
2022-10-17T04:14:50.331Z,91.30
2022-10-17T04:17:19.415Z,91.30
2022-10-17T04:19:48.230Z,91.40
2022-10-17T04:22:23.455Z,91.30
2022-10-17T04:24:54.377Z,91.30
2022-10-17T04:30:10.421Z,91.10
2022-10-17T04:32:40.646Z,91.10
2022-10-17T04:35:09.907Z,91.30
2022-10-17T04:38:01.511Z,91.20
2022-10-17T04:40:34.773Z,91.20
2022-10-17T04:43:03.560Z,91.30
2022-10-17T04:45:32.679Z,91.20
2022-10-17T04:48:01.679Z,91.20
2022-10-17T04:50:32.889Z,91.10
2022-10-17T04:53:03.878Z,91.10
2022-10-17T04:55:43.031Z,91.20
2022-10-17T04:58:12.234Z,91.20
2022-10-17T05:00:41.100Z,91.20
2022-10-17T05:05:59.546Z,91.20
2022-10-17T05:08:29.434Z,91.20
2022-10-17T05:11:04.355Z,91.20
2022-10-17T05:13:46.197Z,91.30
2022-10-17T05:19:04.283Z,91.20
2022-10-17T05:21:38.598Z,91.20
2022-10-17T05:24:15.412Z,91.20
2022-10-17T05:26:46.590Z,91.30
2022-10-17T05:29:18.842Z,91.20
2022-10-17T05:31:47.280Z,91.20
2022-10-17T05:34:18.261Z,91.20
2022-10-17T05:36:46.722Z,91.30
2022-10-17T05:39:19.843Z,91.20
2022-10-17T05:41:52.726Z,91.20
2022-10-17T05:44:34.754Z,91.30
2022-10-17T05:47:10.184Z,91.20
2022-10-17T05:49:53.148Z,91.20
2022-10-17T05:52:21.684Z,91.30
2022-10-17T05:54:51.922Z,91.20
2022-10-17T05:57:22.025Z,91.20
2022-10-17T05:59:54.876Z,91.10
2022-10-17T06:02:23.380Z,91.20
2022-10-17T06:04:55.042Z,91.20
2022-10-17T06:07:24.049Z,91.30
2022-10-17T06:09:52.929Z,91.30
2022-10-17T06:12:23.271Z,91.40
2022-10-17T06:15:04.330Z,91.40
2022-10-17T06:17:34.196Z,91.40
2022-10-17T06:20:02.455Z,91.30
2022-10-17T06:22:31.050Z,91.30
2022-10-17T06:24:59.747Z,91.40
2022-10-17T06:27:30.278Z,91.30
2022-10-17T06:29:58.599Z,91.40
2022-10-17T06:32:27.361Z,91.40
2022-10-17T06:34:55.654Z,91.30
2022-10-17T06:37:23.972Z,91.30
2022-10-17T06:39:54.471Z,91.30
2022-10-17T06:42:23.110Z,91.40
2022-10-17T06:45:06.785Z,91.30
2022-10-17T06:47:34.965Z,91.30
2022-10-17T06:50:07.219Z,91.30
2022-10-17T06:52:38.241Z,91.30
2022-10-17T06:55:07.177Z,91.30
2022-10-17T06:57:35.670Z,91.30
2022-10-17T07:00:07.190Z,91.30
2022-10-17T07:02:35.343Z,91.30
2022-10-17T07:05:04.031Z,91.20
2022-10-17T07:07:34.376Z,91.30
2022-10-17T07:10:04.208Z,91.40
2022-10-17T07:12:32.399Z,91.30
2022-10-17T07:15:00.750Z,91.30
2022-10-17T07:17:30.542Z,91.30
2022-10-17T07:19:59.278Z,91.20
2022-10-17T07:22:27.451Z,91.20
2022-10-17T07:24:55.571Z,91.20
2022-10-17T07:27:24.007Z,91.20
2022-10-17T07:29:52.244Z,91.30
2022-10-17T07:32:28.878Z,91.60
2022-10-17T07:35:00.525Z,91.30
2022-10-17T07:37:39.191Z,91.30
2022-10-17T07:40:09.617Z,91.20
2022-10-17T07:45:09.224Z,91.20
2022-10-17T07:47:37.498Z,91.20
2022-10-17T07:50:08.845Z,91.30
2022-10-17T07:52:44.896Z,91.20
2022-10-17T07:55:13.699Z,91.30
2022-10-17T07:57:46.110Z,91.20
2022-10-17T08:00:16.492Z,91.10
2022-10-17T08:02:44.576Z,91.10
2022-10-17T08:05:17.341Z,91.20
2022-10-17T08:07:45.659Z,91.10
2022-10-17T08:10:17.297Z,91.20
2022-10-17T08:13:02.732Z,91.10
2022-10-17T08:16:00.911Z,91.10
2022-10-17T08:18:29.530Z,91.10
2022-10-17T08:21:02.332Z,91.00
2022-10-17T08:23:32.272Z,91.00
2022-10-17T08:26:05.417Z,91.00
2022-10-17T08:28:36.197Z,90.90
2022-10-17T08:31:05.786Z,91.00
2022-10-17T08:33:37.878Z,91.00
2022-10-17T08:36:22.380Z,91.10
2022-10-17T08:38:53.098Z,91.00
2022-10-17T08:41:39.167Z,91.10
2022-10-17T08:44:21.917Z,91.10
2022-10-17T08:46:53.737Z,91.10
2022-10-17T08:49:28.917Z,91.10
2022-10-17T08:52:16.606Z,91.10
2022-10-17T08:55:16.473Z,91.10
2022-10-17T09:01:28.407Z,91.10
2022-10-17T09:04:40.574Z,91.10
2022-10-17T09:07:54.698Z,91.10
2022-10-17T09:11:04.407Z,91.00
2022-10-17T09:14:27.702Z,91.00
2022-10-17T09:17:56.847Z,91.10
2022-10-17T09:21:05.129Z,91.00
2022-10-17T09:24:09.381Z,90.90
2022-10-17T09:27:04.624Z,90.90
2022-10-17T09:32:58.223Z,90.90
2022-10-17T09:36:03.720Z,90.80
2022-10-17T09:38:58.271Z,90.80
2022-10-17T09:44:42.351Z,90.80
2022-10-17T09:51:02.594Z,90.80
2022-10-17T09:53:46.379Z,90.70
2022-10-17T09:56:38.973Z,90.70
2022-10-17T09:59:21.383Z,90.70
2022-10-17T10:02:16.024Z,90.70
2022-10-17T10:05:32.772Z,90.70
2022-10-17T10:08:19.838Z,90.60
2022-10-17T10:11:01.020Z,90.60
2022-10-17T10:13:41.878Z,90.60
2022-10-17T10:16:26.075Z,90.60
2022-10-17T10:19:26.352Z,90.60
2022-10-17T10:22:00.295Z,90.50
2022-10-17T10:24:48.554Z,90.60
2022-10-17T10:27:44.793Z,90.90
2022-10-17T10:30:26.712Z,90.50
2022-10-17T10:33:06.462Z,90.50
2022-10-17T10:40:16.688Z,90.50
2022-10-17T10:43:32.455Z,90.60
2022-10-17T10:46:37.743Z,90.70
2022-10-17T10:53:06.661Z,90.60
2022-10-17T10:55:41.942Z,90.70
2022-10-17T10:58:24.121Z,90.80
2022-10-17T11:00:53.841Z,90.90
2022-10-17T11:03:35.003Z,90.80
2022-10-17T11:06:11.442Z,90.80
2022-10-17T11:08:47.407Z,90.70
2022-10-17T11:11:32.226Z,90.70
2022-10-17T11:14:07.448Z,90.70
2022-10-17T11:16:41.342Z,90.60
2022-10-17T11:19:18.330Z,90.50
2022-10-17T11:21:49.618Z,90.60
2022-10-17T11:24:25.455Z,90.50
2022-10-17T11:26:58.967Z,90.50
2022-10-17T11:29:34.134Z,90.50
2022-10-17T11:32:08.057Z,90.40
2022-10-17T11:34:42.609Z,90.40
2022-10-17T11:37:18.413Z,90.40
2022-10-17T11:39:52.582Z,90.40
2022-10-17T11:42:25.881Z,90.30
2022-10-17T11:45:00.103Z,90.40
2022-10-17T11:47:35.410Z,90.30
2022-10-17T11:53:01.860Z,90.30
2022-10-17T11:55:34.280Z,90.30
2022-10-17T11:58:19.305Z,90.20
2022-10-17T12:00:59.624Z,90.20
2022-10-17T12:03:41.332Z,90.20
2022-10-17T12:06:16.905Z,90.20
2022-10-17T12:08:54.860Z,90.20
2022-10-17T12:11:35.807Z,90.20
2022-10-17T12:14:06.217Z,90.20
2022-10-17T12:16:49.754Z,90.20
2022-10-17T12:19:28.702Z,90.20
2022-10-17T12:21:59.310Z,90.20
2022-10-17T12:24:38.211Z,90.30
2022-10-17T12:27:43.808Z,90.20
2022-10-17T12:30:32.370Z,90.20
2022-10-17T12:33:06.749Z,90.30
2022-10-17T12:35:40.260Z,90.30
2022-10-17T12:38:29.329Z,90.30
2022-10-17T12:41:05.603Z,90.30
2022-10-17T12:46:55.798Z,90.20
2022-10-17T12:49:45.617Z,90.30
2022-10-17T12:52:20.270Z,90.40
2022-10-17T12:55:17.539Z,90.40
2022-10-17T12:58:01.211Z,90.40
2022-10-17T13:00:36.509Z,90.40
2022-10-17T13:03:11.439Z,90.40
2022-10-17T13:05:43.374Z,90.40
2022-10-17T13:08:21.192Z,90.40
2022-10-17T13:10:52.793Z,90.50
2022-10-17T13:13:24.758Z,90.60
2022-10-17T13:15:55.759Z,90.50
2022-10-17T13:18:26.782Z,90.50
2022-10-17T13:21:00.503Z,90.50
2022-10-17T13:23:33.584Z,90.40
2022-10-17T13:26:07.522Z,90.40
2022-10-17T13:28:39.147Z,90.40
2022-10-17T13:31:26.211Z,90.40
2022-10-17T13:33:58.695Z,90.40
2022-10-17T13:36:28.612Z,90.80
2022-10-17T13:38:58.569Z,90.40
2022-10-17T13:41:37.403Z,90.30
2022-10-17T13:44:13.305Z,90.30
2022-10-17T13:46:46.552Z,90.30
2022-10-17T13:49:24.451Z,90.30
2022-10-17T13:51:56.238Z,90.30
2022-10-17T13:54:34.479Z,90.30
2022-10-17T13:57:04.672Z,90.20
2022-10-17T13:59:39.810Z,90.20
2022-10-17T14:02:21.163Z,90.20
2022-10-17T14:05:18.345Z,90.20
2022-10-17T14:10:43.254Z,90.20
2022-10-17T14:13:21.446Z,90.20
2022-10-17T14:15:50.107Z,90.20
2022-10-17T14:18:22.754Z,90.20
2022-10-17T14:23:42.662Z,90.10
2022-10-17T14:26:14.155Z,90.10
2022-10-17T14:28:44.863Z,90.10
2022-10-17T14:31:20.688Z,90.00
2022-10-17T14:33:52.679Z,90.00
2022-10-17T14:36:22.657Z,90.00
2022-10-17T14:41:47.145Z,90.00
2022-10-17T14:44:22.911Z,90.00
2022-10-17T14:46:55.805Z,90.00
2022-10-17T14:49:33.220Z,90.00
2022-10-17T14:52:24.887Z,90.00
2022-10-17T14:54:55.687Z,90.00
2022-10-17T14:57:27.260Z,90.00
2022-10-17T14:59:56.693Z,90.00
2022-10-17T15:02:25.665Z,89.90
2022-10-17T15:04:55.156Z,90.00
2022-10-17T15:07:24.396Z,90.30
2022-10-17T15:09:54.603Z,90.00
2022-10-17T15:12:25.180Z,90.00
2022-10-17T15:14:54.201Z,89.80
2022-10-17T15:17:25.440Z,89.80
2022-10-17T15:19:58.295Z,89.80
2022-10-17T15:22:27.273Z,89.80
2022-10-17T15:24:55.490Z,89.80
2022-10-17T15:27:26.595Z,89.80
2022-10-17T15:29:54.584Z,89.80
2022-10-17T15:32:22.792Z,89.70
2022-10-17T15:34:50.980Z,89.70
2022-10-17T15:37:23.519Z,89.70
2022-10-17T15:39:56.727Z,89.70
2022-10-17T15:42:29.081Z,89.70
2022-10-17T15:44:57.763Z,89.70
2022-10-17T15:47:28.737Z,89.70
2022-10-17T15:49:58.310Z,89.60
2022-10-17T15:52:28.570Z,89.70
2022-10-17T15:54:59.547Z,89.60
2022-10-17T15:57:35.087Z,89.60
2022-10-17T16:00:03.990Z,89.70
2022-10-17T16:02:33.326Z,89.60
2022-10-17T16:05:03.802Z,89.60
2022-10-17T16:07:35.936Z,89.70
2022-10-17T16:10:04.562Z,89.60
2022-10-17T16:12:38.059Z,89.60
2022-10-17T16:15:07.234Z,89.70
2022-10-17T16:17:35.706Z,89.70
2022-10-17T16:20:07.067Z,89.70
2022-10-17T16:23:02.612Z,89.70
2022-10-17T16:25:32.028Z,89.80
2022-10-17T16:28:03.407Z,89.80
2022-10-17T16:30:33.318Z,89.80
2022-10-17T16:33:03.171Z,89.80
2022-10-17T16:35:36.500Z,89.70
2022-10-17T16:38:10.968Z,89.80
2022-10-17T16:40:41.380Z,89.80
2022-10-17T16:43:12.830Z,89.80
2022-10-17T16:45:43.091Z,89.80
2022-10-17T16:48:12.295Z,89.80
2022-10-17T16:50:43.280Z,89.80
2022-10-17T16:53:13.774Z,90.00
2022-10-17T16:55:43.680Z,89.90
2022-10-17T16:58:12.149Z,89.90
2022-10-17T17:00:43.447Z,90.00
2022-10-17T17:03:12.467Z,90.00
2022-10-17T17:05:48.713Z,90.00
2022-10-17T17:08:18.877Z,90.00
2022-10-17T17:10:51.294Z,90.00
2022-10-17T17:13:21.884Z,90.00
2022-10-17T17:15:53.744Z,90.00
2022-10-17T17:18:22.466Z,90.00
2022-10-17T17:21:14.899Z,90.00
2022-10-17T17:23:45.441Z,90.00
2022-10-17T17:26:18.153Z,90.00
2022-10-17T17:28:48.126Z,90.00
2022-10-17T17:31:20.398Z,90.00
2022-10-17T17:33:48.765Z,90.00
2022-10-17T17:36:20.246Z,90.00
2022-10-17T17:38:50.988Z,90.00
2022-10-17T17:41:20.565Z,90.10
2022-10-17T17:43:50.354Z,90.00
2022-10-17T17:46:20.223Z,90.10
2022-10-17T17:48:49.730Z,90.10
2022-10-17T17:51:19.546Z,90.00
2022-10-17T17:53:49.961Z,90.10
2022-10-17T17:56:20.415Z,90.00
2022-10-17T17:58:51.656Z,90.10
2022-10-17T18:01:22.481Z,90.00
2022-10-17T18:03:52.832Z,90.10
2022-10-17T18:06:22.970Z,90.10
2022-10-17T18:08:55.639Z,90.10
2022-10-17T18:11:30.911Z,90.10
2022-10-17T18:14:01.906Z,90.10
2022-10-17T18:16:31.386Z,90.10
2022-10-17T18:19:04.245Z,90.10
2022-10-17T18:21:35.344Z,90.10
2022-10-17T18:24:09.552Z,90.20
2022-10-17T18:26:42.568Z,90.20
2022-10-17T18:29:13.366Z,90.20
2022-10-17T18:31:41.610Z,90.20
2022-10-17T18:34:09.996Z,90.20
2022-10-17T18:36:41.798Z,90.20
2022-10-17T18:39:11.924Z,90.20
2022-10-17T18:41:40.428Z,90.20
2022-10-17T18:44:08.733Z,90.20
2022-10-17T18:46:41.898Z,90.20
2022-10-17T18:49:15.823Z,90.20
2022-10-17T18:51:47.405Z,90.20
2022-10-17T18:54:21.440Z,90.30
2022-10-17T18:56:54.198Z,90.20
2022-10-17T18:59:23.050Z,90.30
2022-10-17T19:01:53.393Z,90.30
2022-10-17T19:04:24.710Z,90.30
2022-10-17T19:06:55.020Z,90.30
2022-10-17T19:09:26.258Z,90.40
2022-10-17T19:11:56.807Z,90.40
2022-10-17T19:14:26.372Z,90.40
2022-10-17T19:17:00.640Z,90.40
2022-10-17T19:19:38.265Z,90.50
2022-10-17T19:22:06.573Z,90.50
2022-10-17T19:24:36.594Z,90.60
2022-10-17T19:27:07.023Z,90.60
2022-10-17T19:29:35.563Z,90.70
2022-10-17T19:32:03.792Z,90.70
2022-10-17T19:34:32.666Z,90.70
2022-10-17T19:37:00.738Z,90.70
2022-10-17T19:39:29.108Z,90.70
2022-10-17T19:42:06.026Z,90.70
2022-10-17T19:44:35.765Z,90.80
2022-10-17T19:47:06.515Z,90.80
2022-10-17T19:49:34.943Z,90.90
2022-10-17T19:52:03.627Z,90.90
2022-10-17T19:54:32.002Z,91.10
2022-10-17T19:57:03.162Z,91.50
2022-10-17T19:59:32.618Z,91.20
2022-10-17T20:02:02.902Z,91.20
2022-10-17T20:04:30.985Z,91.20
2022-10-17T20:07:00.077Z,91.20
2022-10-17T20:09:28.228Z,91.30
2022-10-17T20:11:56.292Z,91.30
2022-10-17T20:14:25.816Z,91.30
2022-10-17T20:16:54.793Z,91.30
2022-10-17T20:19:22.887Z,91.30
2022-10-17T20:21:51.349Z,91.40
2022-10-17T20:24:19.582Z,91.40
2022-10-17T20:26:47.736Z,91.40
2022-10-17T20:29:18.133Z,91.40
2022-10-17T20:31:48.838Z,91.30
2022-10-17T20:34:18.213Z,91.30
2022-10-17T20:36:46.526Z,91.30
2022-10-17T20:39:15.744Z,91.30
2022-10-17T20:41:44.676Z,91.40
2022-10-17T20:44:14.005Z,91.40
2022-10-17T20:46:57.609Z,91.30
2022-10-17T20:49:33.004Z,91.30
2022-10-17T20:52:02.623Z,91.40
2022-10-17T20:54:32.155Z,91.30
2022-10-17T20:57:02.608Z,91.40
2022-10-17T20:59:34.560Z,91.30
2022-10-17T21:02:03.522Z,91.40
2022-10-17T21:04:45.775Z,91.40
2022-10-17T21:07:15.047Z,91.40
2022-10-17T21:09:43.211Z,91.40
2022-10-17T21:12:11.232Z,91.50
2022-10-17T21:14:39.210Z,91.60
2022-10-17T21:17:07.874Z,91.70
2022-10-17T21:19:37.379Z,91.70
2022-10-17T21:22:05.463Z,91.70
2022-10-17T21:24:33.679Z,91.70
2022-10-17T21:27:01.760Z,91.70
2022-10-17T21:29:30.992Z,91.90
2022-10-17T21:31:59.392Z,91.70
2022-10-17T21:34:28.633Z,91.80
2022-10-17T21:36:58.405Z,91.80
2022-10-17T21:39:26.759Z,91.70
2022-10-17T21:41:55.327Z,91.80
2022-10-17T21:44:24.693Z,91.70
2022-10-17T21:46:53.624Z,91.70
2022-10-17T21:49:50.218Z,91.80
2022-10-17T21:52:19.824Z,91.80
2022-10-17T21:54:47.976Z,91.80
2022-10-17T21:59:48.918Z,91.80
2022-10-17T22:02:17.483Z,91.80
2022-10-17T22:04:48.335Z,91.70
2022-10-17T22:07:16.408Z,91.80
2022-10-17T22:09:46.059Z,91.70
2022-10-17T22:12:14.171Z,91.70
2022-10-17T22:14:42.421Z,91.70
2022-10-17T22:17:10.567Z,91.70
2022-10-17T22:19:39.065Z,91.70
2022-10-17T22:22:07.247Z,92.10
2022-10-17T22:24:35.805Z,91.70
2022-10-17T22:27:06.163Z,91.70
2022-10-17T22:29:36.280Z,91.70
2022-10-17T22:32:04.569Z,91.70
2022-10-17T22:34:33.493Z,91.70
2022-10-17T22:37:01.732Z,91.70
2022-10-17T22:39:29.687Z,91.60
2022-10-17T22:41:57.772Z,91.60
2022-10-17T22:44:28.034Z,91.60
2022-10-17T22:46:56.169Z,91.60
2022-10-17T22:49:24.332Z,92.00
2022-10-17T22:51:52.693Z,91.60
2022-10-17T22:54:20.833Z,91.60
2022-10-17T22:56:48.876Z,91.60
2022-10-17T22:59:17.195Z,91.70
2022-10-17T23:01:46.705Z,91.60
2022-10-17T23:04:14.847Z,91.60
2022-10-17T23:06:43.040Z,91.60
2022-10-17T23:09:13.029Z,91.60
2022-10-17T23:11:41.090Z,91.60
2022-10-17T23:14:09.289Z,91.60
2022-10-17T23:16:37.512Z,91.70
2022-10-17T23:19:06.911Z,91.70
2022-10-17T23:21:35.194Z,91.70
2022-10-17T23:24:03.391Z,91.60
2022-10-17T23:26:31.459Z,91.60
2022-10-17T23:28:59.811Z,91.60
2022-10-17T23:31:27.827Z,91.70
2022-10-17T23:33:56.010Z,91.70
2022-10-17T23:36:25.724Z,91.70
2022-10-17T23:38:56.470Z,91.70
2022-10-17T23:41:26.931Z,92.00
2022-10-17T23:43:55.247Z,91.80
2022-10-17T23:46:23.519Z,91.70
2022-10-17T23:48:52.088Z,91.70
2022-10-17T23:51:21.404Z,91.90
2022-10-17T23:53:50.957Z,91.70
2022-10-17T23:56:19.467Z,91.70
2022-10-17T23:58:48.814Z,91.70
